createdAt,value
2022-07-25T00:01:42.863Z,20.14
2022-07-25T00:04:11.077Z,20.14
2022-07-25T00:06:40.207Z,19.95
2022-07-25T00:09:06.720Z,19.91
2022-07-25T00:11:33.345Z,19.93
2022-07-25T00:13:59.972Z,20.01
2022-07-25T00:16:27.461Z,19.99
2022-07-25T00:18:54.938Z,20.07
2022-07-25T00:21:21.633Z,20.20
2022-07-25T00:23:49.493Z,20.17
2022-07-25T00:26:16.952Z,20.12
2022-07-25T00:28:44.141Z,20.08
2022-07-25T00:31:10.777Z,20.11
2022-07-25T00:33:37.283Z,20.18
2022-07-25T00:36:03.997Z,20.14
2022-07-25T00:38:31.276Z,20.12
2022-07-25T00:40:57.882Z,20.11
2022-07-25T00:43:25.260Z,20.03
2022-07-25T00:45:52.018Z,19.93
2022-07-25T00:48:18.535Z,19.89
2022-07-25T00:50:44.990Z,19.91
2022-07-25T00:53:11.630Z,19.91
2022-07-25T00:55:38.091Z,19.87
2022-07-25T00:58:04.566Z,19.89
2022-07-25T01:00:31.268Z,19.87
2022-07-25T01:02:58.482Z,19.88
2022-07-25T01:05:25.789Z,19.86
2022-07-25T01:07:53.923Z,19.83
2022-07-25T01:10:20.496Z,19.83
2022-07-25T01:12:53.436Z,19.78
2022-07-25T01:15:24.796Z,19.75
2022-07-25T01:17:51.862Z,19.71
2022-07-25T01:20:20.151Z,19.69
2022-07-25T01:22:47.829Z,19.69
2022-07-25T01:25:15.533Z,19.68
2022-07-25T01:27:42.801Z,19.61
2022-07-25T01:30:12.735Z,19.62
2022-07-25T01:32:39.376Z,19.65
2022-07-25T01:35:07.493Z,19.62
2022-07-25T01:37:34.154Z,19.62
2022-07-25T01:40:01.295Z,19.62
2022-07-25T01:42:28.520Z,19.55
2022-07-25T01:44:56.014Z,19.52
2022-07-25T01:47:22.637Z,19.48
2022-07-25T01:49:49.750Z,19.41
2022-07-25T01:52:16.374Z,19.26
2022-07-25T01:54:43.448Z,19.20
2022-07-25T01:57:10.566Z,19.19
2022-07-25T01:59:40.164Z,19.19
2022-07-25T02:02:08.541Z,19.21
2022-07-25T02:04:36.055Z,19.23
2022-07-25T02:07:03.508Z,19.18
2022-07-25T02:09:33.067Z,19.13
2022-07-25T02:12:00.064Z,19.10
2022-07-25T02:14:27.552Z,19.04
2022-07-25T02:16:54.948Z,19.11
2022-07-25T02:19:21.506Z,19.09
2022-07-25T02:21:51.539Z,19.04
2022-07-25T02:24:18.109Z,18.97
2022-07-25T02:26:44.528Z,18.87
2022-07-25T02:29:11.015Z,18.93
2022-07-25T02:31:37.437Z,19.00
2022-07-25T02:34:04.514Z,18.95
2022-07-25T02:36:31.434Z,18.91
2022-07-25T02:38:58.364Z,18.86
2022-07-25T02:41:25.786Z,18.82
2022-07-25T02:43:52.258Z,18.82
2022-07-25T02:46:18.979Z,18.82
2022-07-25T02:48:45.663Z,18.83
2022-07-25T02:51:13.400Z,18.84
2022-07-25T02:53:56.527Z,18.81
2022-07-25T02:56:24.987Z,18.78
2022-07-25T02:58:51.424Z,18.74
2022-07-25T03:01:17.999Z,18.74
2022-07-25T03:03:44.723Z,18.75
2022-07-25T03:06:11.230Z,18.80
2022-07-25T03:08:37.709Z,18.84
2022-07-25T03:11:04.681Z,18.86
2022-07-25T03:13:33.262Z,18.97
2022-07-25T03:16:00.270Z,19.09
2022-07-25T03:18:27.968Z,19.08
2022-07-25T03:20:54.858Z,18.94
2022-07-25T03:23:21.477Z,18.78
2022-07-25T03:25:48.489Z,18.52
2022-07-25T03:28:14.937Z,18.42
2022-07-25T03:30:41.419Z,18.33
2022-07-25T03:33:07.918Z,18.33
2022-07-25T03:35:35.196Z,18.36
2022-07-25T03:38:02.995Z,18.32
2022-07-25T03:40:30.065Z,18.30
2022-07-25T03:42:56.986Z,18.36
2022-07-25T03:45:24.824Z,18.38
2022-07-25T03:47:51.384Z,18.40
2022-07-25T03:50:17.822Z,18.41
2022-07-25T03:52:44.242Z,18.45
2022-07-25T03:55:11.300Z,18.46
2022-07-25T03:57:38.286Z,18.42
2022-07-25T04:00:10.136Z,18.45
2022-07-25T04:02:37.777Z,18.48
2022-07-25T04:05:06.446Z,18.53
2022-07-25T04:07:32.948Z,18.52
2022-07-25T04:09:59.439Z,18.49
2022-07-25T04:12:27.015Z,18.50
2022-07-25T04:14:53.955Z,18.51
2022-07-25T04:17:20.666Z,18.57
2022-07-25T04:19:48.608Z,18.59
2022-07-25T04:22:15.659Z,18.64
2022-07-25T04:24:42.118Z,18.70
2022-07-25T04:27:08.603Z,18.75
2022-07-25T04:29:35.120Z,18.79
2022-07-25T04:32:01.667Z,18.85
2022-07-25T04:34:31.528Z,18.94
2022-07-25T04:36:57.970Z,18.96
2022-07-25T04:39:26.006Z,18.99
2022-07-25T04:41:52.662Z,19.01
2022-07-25T04:44:19.137Z,19.08
2022-07-25T04:46:45.553Z,19.12
2022-07-25T04:49:12.055Z,19.15
2022-07-25T04:51:38.539Z,19.22
2022-07-25T04:54:05.394Z,19.30
2022-07-25T04:56:32.049Z,19.36
2022-07-25T04:59:04.716Z,19.43
2022-07-25T05:01:33.969Z,19.52
2022-07-25T05:04:00.496Z,19.60
2022-07-25T05:06:27.223Z,19.68
2022-07-25T05:08:53.879Z,19.73
2022-07-25T05:11:20.437Z,19.79
2022-07-25T05:13:46.969Z,19.84
2022-07-25T05:16:13.737Z,19.94
2022-07-25T05:18:40.564Z,19.97
2022-07-25T05:21:10.320Z,20.01
2022-07-25T05:23:36.794Z,20.05
2022-07-25T05:26:03.795Z,20.13
2022-07-25T05:28:30.324Z,20.22
2022-07-25T05:30:57.074Z,20.36
2022-07-25T05:33:23.749Z,20.49
2022-07-25T05:35:50.316Z,20.75
2022-07-25T05:38:16.839Z,20.98
2022-07-25T05:40:43.362Z,21.16
2022-07-25T05:43:10.050Z,21.35
2022-07-25T05:45:36.511Z,21.44
2022-07-25T05:48:03.089Z,21.57
2022-07-25T05:50:29.607Z,21.66
2022-07-25T05:52:56.220Z,21.78
2022-07-25T05:55:22.675Z,22.00
2022-07-25T05:57:49.484Z,22.12
2022-07-25T06:00:16.227Z,22.29
2022-07-25T06:02:42.782Z,22.57
2022-07-25T06:05:09.469Z,22.80
2022-07-25T06:07:36.123Z,23.00
2022-07-25T06:10:03.670Z,23.22
2022-07-25T06:12:30.297Z,23.45
2022-07-25T06:14:57.270Z,23.70
2022-07-25T06:17:25.983Z,23.86
2022-07-25T06:19:56.146Z,24.06
2022-07-25T06:22:23.108Z,24.31
2022-07-25T06:24:51.126Z,24.49
2022-07-25T06:27:20.973Z,24.71
2022-07-25T06:29:48.488Z,24.95
2022-07-25T06:32:15.107Z,25.19
2022-07-25T06:34:41.764Z,25.29
2022-07-25T06:37:08.220Z,25.38
2022-07-25T06:39:34.642Z,25.49
2022-07-25T06:42:04.578Z,25.60
2022-07-25T06:44:34.961Z,25.80
2022-07-25T06:47:03.879Z,25.98
2022-07-25T06:49:30.381Z,26.11
2022-07-25T06:51:57.236Z,26.29
2022-07-25T06:54:24.054Z,26.40
2022-07-25T06:56:50.860Z,26.53
2022-07-25T06:59:17.318Z,26.61
2022-07-25T07:01:46.983Z,26.48
2022-07-25T07:04:16.410Z,26.47
2022-07-25T07:06:43.811Z,26.53
2022-07-25T07:09:10.574Z,26.54
2022-07-25T07:11:37.193Z,26.58
2022-07-25T07:14:04.343Z,26.62
2022-07-25T07:16:31.920Z,26.60
2022-07-25T07:18:58.435Z,26.83
2022-07-25T07:21:25.094Z,26.90
2022-07-25T07:23:53.688Z,26.97
2022-07-25T07:26:20.635Z,27.03
2022-07-25T07:28:47.570Z,27.06
2022-07-25T07:31:17.946Z,27.14
2022-07-25T07:33:44.736Z,27.24
2022-07-25T07:36:11.265Z,27.29
2022-07-25T07:38:37.715Z,27.28
2022-07-25T07:41:04.129Z,27.21
2022-07-25T07:43:31.798Z,27.21
2022-07-25T07:46:00.873Z,27.24
2022-07-25T07:48:31.677Z,27.39
2022-07-25T07:50:59.423Z,27.45
2022-07-25T07:53:46.295Z,27.73
2022-07-25T07:56:14.088Z,27.76
2022-07-25T07:58:40.519Z,27.95
2022-07-25T08:01:07.562Z,28.16
2022-07-25T08:03:34.179Z,28.35
2022-07-25T08:06:00.692Z,28.57
2022-07-25T08:08:31.138Z,28.92
2022-07-25T08:10:59.430Z,29.36
2022-07-25T08:13:29.103Z,29.60
2022-07-25T08:16:03.468Z,29.62
2022-07-25T08:18:32.710Z,29.62
2022-07-25T08:21:02.858Z,29.51
2022-07-25T08:23:31.431Z,29.50
2022-07-25T08:25:58.010Z,29.46
2022-07-25T08:28:24.949Z,29.35
2022-07-25T08:30:52.088Z,29.42
2022-07-25T08:33:19.070Z,29.71
2022-07-25T08:35:47.969Z,29.90
2022-07-25T08:38:15.148Z,29.91
2022-07-25T08:40:41.721Z,30.14
2022-07-25T08:43:12.400Z,30.03
2022-07-25T08:45:46.589Z,30.15
2022-07-25T08:48:13.956Z,30.23
2022-07-25T08:50:40.605Z,30.26
2022-07-25T08:55:53.716Z,30.26
2022-07-25T08:58:20.642Z,30.25
2022-07-25T09:00:47.938Z,30.24
2022-07-25T09:03:14.605Z,30.34
2022-07-25T09:05:42.624Z,30.61
2022-07-25T09:08:14.369Z,30.92
2022-07-25T09:10:47.017Z,31.13
2022-07-25T09:13:14.813Z,31.39
2022-07-25T09:15:50.135Z,31.52
2022-07-25T09:18:22.208Z,31.70
2022-07-25T09:20:51.855Z,31.69
2022-07-25T09:23:30.582Z,31.67
2022-07-25T09:26:06.470Z,31.61
2022-07-25T09:28:43.988Z,31.52
2022-07-25T09:31:11.310Z,31.58
2022-07-25T09:33:48.863Z,31.70
2022-07-25T09:36:15.453Z,31.65
2022-07-25T09:38:55.611Z,31.52
2022-07-25T09:41:22.191Z,31.37
2022-07-25T09:43:49.085Z,31.31
2022-07-25T09:46:15.610Z,31.17
2022-07-25T09:48:44.906Z,31.18
2022-07-25T09:51:11.601Z,31.20
2022-07-25T09:53:38.030Z,31.32
2022-07-25T09:56:04.686Z,31.39
2022-07-25T09:58:31.682Z,31.28
2022-07-25T10:01:07.343Z,31.39
2022-07-25T10:03:51.070Z,31.47
2022-07-25T10:06:56.389Z,31.71
2022-07-25T10:09:23.760Z,31.85
2022-07-25T10:12:09.831Z,31.82
2022-07-25T10:14:37.888Z,31.62
2022-07-25T10:17:05.667Z,31.71
2022-07-25T10:19:49.913Z,31.69
2022-07-25T10:22:29.439Z,31.70
2022-07-25T10:25:14.331Z,31.68
2022-07-25T10:27:58.212Z,31.97
2022-07-25T10:30:35.636Z,32.23
2022-07-25T10:33:04.557Z,32.19
2022-07-25T10:35:31.949Z,32.37
2022-07-25T10:37:59.613Z,32.30
2022-07-25T10:40:33.695Z,32.37
2022-07-25T10:43:06.012Z,32.75
2022-07-25T10:45:59.767Z,32.95
2022-07-25T10:48:29.472Z,32.98
2022-07-25T10:51:03.931Z,32.90
2022-07-25T10:53:36.237Z,32.64
2022-07-25T10:56:08.466Z,32.41
2022-07-25T10:59:01.106Z,32.32
2022-07-25T11:01:32.838Z,32.09
2022-07-25T11:04:02.678Z,31.95
2022-07-25T11:06:40.195Z,31.87
2022-07-25T11:09:19.166Z,31.81
2022-07-25T11:11:49.996Z,31.72
2022-07-25T11:14:20.447Z,31.45
2022-07-25T11:16:49.090Z,31.46
2022-07-25T11:19:27.687Z,31.60
2022-07-25T11:21:57.352Z,31.64
2022-07-25T11:24:47.027Z,32.19
2022-07-25T11:27:21.580Z,32.43
2022-07-25T11:29:48.764Z,32.72
2022-07-25T11:32:15.409Z,32.72
2022-07-25T11:34:49.072Z,32.88
2022-07-25T11:37:18.303Z,32.96
2022-07-25T11:39:46.822Z,32.81
2022-07-25T11:42:16.421Z,32.56
2022-07-25T11:44:48.655Z,32.31
2022-07-25T11:47:29.082Z,32.20
2022-07-25T11:49:58.662Z,32.75
2022-07-25T11:52:31.082Z,32.96
2022-07-25T11:55:08.520Z,33.23
2022-07-25T11:57:40.562Z,33.25
2022-07-25T12:00:17.408Z,32.83
2022-07-25T12:02:45.136Z,32.77
2022-07-25T12:05:13.599Z,32.35
2022-07-25T12:07:51.910Z,32.02
2022-07-25T12:10:34.539Z,31.89
2022-07-25T12:13:03.661Z,31.68
2022-07-25T12:15:36.944Z,31.66
2022-07-25T12:18:03.653Z,31.55
2022-07-25T12:20:35.376Z,31.51
2022-07-25T12:23:04.680Z,31.14
2022-07-25T12:25:36.947Z,30.89
2022-07-25T12:28:04.177Z,30.86
2022-07-25T12:30:31.258Z,30.82
2022-07-25T12:32:58.750Z,30.56
2022-07-25T12:35:26.820Z,30.47
2022-07-25T12:37:53.409Z,30.39
2022-07-25T12:40:20.628Z,30.35
2022-07-25T12:42:48.698Z,30.37
2022-07-25T12:45:17.195Z,30.36
2022-07-25T12:47:45.280Z,30.35
2022-07-25T12:50:12.216Z,30.27
2022-07-25T12:52:38.979Z,30.17
2022-07-25T12:55:07.075Z,30.17
2022-07-25T12:57:35.031Z,30.16
2022-07-25T13:00:02.073Z,30.09
2022-07-25T13:02:28.555Z,29.99
2022-07-25T13:04:55.407Z,29.99
2022-07-25T13:07:21.882Z,30.04
2022-07-25T13:09:48.669Z,30.17
2022-07-25T13:12:16.681Z,30.21
2022-07-25T13:14:43.242Z,30.48
2022-07-25T13:17:10.750Z,30.78
2022-07-25T13:19:37.433Z,31.18
2022-07-25T13:22:04.059Z,31.55
2022-07-25T13:24:31.193Z,31.94
2022-07-25T13:26:57.893Z,32.15
2022-07-25T13:29:25.442Z,32.19
2022-07-25T13:31:52.036Z,32.06
2022-07-25T13:34:18.557Z,32.19
2022-07-25T13:36:45.051Z,32.46
2022-07-25T13:39:11.571Z,32.50
2022-07-25T13:41:38.153Z,32.65
2022-07-25T13:44:04.874Z,32.78
2022-07-25T13:46:32.239Z,32.09
2022-07-25T13:48:58.828Z,32.06
2022-07-25T13:51:26.210Z,32.25
2022-07-25T13:53:52.847Z,32.37
2022-07-25T13:56:19.409Z,32.35
2022-07-25T13:58:47.854Z,32.13
2022-07-25T14:01:14.924Z,32.25
2022-07-25T14:03:41.463Z,32.29
2022-07-25T14:06:11.405Z,32.12
2022-07-25T14:08:40.283Z,31.87
2022-07-25T14:11:08.290Z,31.79
2022-07-25T14:13:36.099Z,32.24
2022-07-25T14:16:04.375Z,32.59
2022-07-25T14:18:31.966Z,32.19
2022-07-25T14:20:59.561Z,31.87
2022-07-25T14:23:29.896Z,31.81
2022-07-25T14:25:58.484Z,31.61
2022-07-25T14:28:25.611Z,31.55
2022-07-25T14:30:52.429Z,31.49
2022-07-25T14:33:18.916Z,31.48
2022-07-25T14:35:45.397Z,31.95
2022-07-25T14:38:11.928Z,32.01
2022-07-25T14:40:38.478Z,31.75
2022-07-25T14:43:04.910Z,31.80
2022-07-25T14:45:32.027Z,31.66
2022-07-25T14:47:58.554Z,31.69
2022-07-25T14:50:27.602Z,31.50
2022-07-25T14:52:54.435Z,31.20
2022-07-25T14:55:22.237Z,31.32
2022-07-25T14:57:49.164Z,31.52
2022-07-25T15:00:16.206Z,31.64
2022-07-25T15:02:42.999Z,31.41
2022-07-25T15:05:09.812Z,31.32
2022-07-25T15:07:37.682Z,31.57
2022-07-25T15:10:04.646Z,31.75
2022-07-25T15:12:31.610Z,31.74
2022-07-25T15:14:58.205Z,31.32
2022-07-25T15:17:24.884Z,30.97
2022-07-25T15:19:51.493Z,30.19
2022-07-25T15:22:17.985Z,30.10
2022-07-25T15:25:21.416Z,29.93
2022-07-25T15:27:31.965Z,29.46
2022-07-25T15:29:58.531Z,29.61
2022-07-25T15:32:25.646Z,29.07
2022-07-25T15:34:52.150Z,28.97
2022-07-25T15:37:18.677Z,28.94
2022-07-25T15:39:45.449Z,29.08
2022-07-25T15:42:12.148Z,28.82
2022-07-25T15:44:38.672Z,28.67
2022-07-25T15:47:07.173Z,28.56
2022-07-25T15:49:33.784Z,28.81
2022-07-25T15:52:00.413Z,28.88
2022-07-25T15:54:29.576Z,28.71
2022-07-25T15:56:56.657Z,28.38
2022-07-25T15:59:23.728Z,28.30
2022-07-25T16:01:50.256Z,28.06
2022-07-25T16:04:17.081Z,28.06
2022-07-25T16:06:43.960Z,28.05
2022-07-25T16:09:12.384Z,28.02
2022-07-25T16:11:39.192Z,27.59
2022-07-25T16:14:05.841Z,27.23
2022-07-25T16:16:32.425Z,27.22
2022-07-25T16:18:58.968Z,27.28
2022-07-25T16:21:25.869Z,27.14
2022-07-25T16:23:52.486Z,27.02
2022-07-25T16:26:19.252Z,26.72
2022-07-25T16:28:48.308Z,26.69
2022-07-25T16:31:15.045Z,26.54
2022-07-25T16:33:41.521Z,26.68
2022-07-25T16:36:08.594Z,26.72
2022-07-25T16:38:35.096Z,26.68
2022-07-25T16:41:02.650Z,26.64
2022-07-25T16:43:29.439Z,26.94
2022-07-25T16:45:56.023Z,27.21
2022-07-25T16:48:22.635Z,27.11
2022-07-25T16:50:49.254Z,27.27
2022-07-25T16:53:15.717Z,27.07
2022-07-25T16:55:42.184Z,27.23
2022-07-25T16:58:08.653Z,27.14
2022-07-25T17:00:35.129Z,27.16
2022-07-25T17:03:02.811Z,27.08
2022-07-25T17:05:29.526Z,27.00
2022-07-25T17:07:59.544Z,26.69
2022-07-25T17:10:27.226Z,26.56
2022-07-25T17:12:54.137Z,26.24
2022-07-25T17:15:20.915Z,26.06
2022-07-25T17:17:48.001Z,25.82
2022-07-25T17:20:14.751Z,25.75
2022-07-25T17:22:41.364Z,25.74
2022-07-25T17:25:08.184Z,25.66
2022-07-25T17:27:35.093Z,25.67
2022-07-25T17:30:02.245Z,25.47
2022-07-25T17:32:30.134Z,25.37
2022-07-25T17:34:58.126Z,25.29
2022-07-25T17:37:26.633Z,25.41
2022-07-25T17:39:53.512Z,25.26
2022-07-25T17:42:22.318Z,25.23
2022-07-25T17:44:52.566Z,25.17
2022-07-25T17:47:19.207Z,25.04
2022-07-25T17:49:45.765Z,25.11
2022-07-25T17:52:12.471Z,25.17
2022-07-25T17:54:40.019Z,25.06
2022-07-25T17:57:06.473Z,25.03
2022-07-25T17:59:34.192Z,24.83
2022-07-25T18:02:02.291Z,24.98
2022-07-25T18:04:28.944Z,25.02
2022-07-25T18:06:55.803Z,24.97
2022-07-25T18:09:22.792Z,24.73
2022-07-25T18:11:49.228Z,24.71
2022-07-25T18:14:16.091Z,24.58
2022-07-25T18:16:45.303Z,24.54
2022-07-25T18:19:11.941Z,24.47
2022-07-25T18:21:38.471Z,24.48
2022-07-25T18:24:05.867Z,24.24
2022-07-25T18:26:33.698Z,24.29
2022-07-25T18:29:00.345Z,24.27
2022-07-25T18:31:27.995Z,24.02
2022-07-25T18:33:54.931Z,24.03
2022-07-25T18:36:21.436Z,23.99
2022-07-25T18:38:48.949Z,24.01
2022-07-25T18:41:31.128Z,23.96
2022-07-25T18:43:58.043Z,23.85
2022-07-25T18:46:25.936Z,23.97
2022-07-25T18:48:53.675Z,23.90
2022-07-25T18:51:20.485Z,23.83
2022-07-25T18:53:48.616Z,23.86
2022-07-25T18:56:16.300Z,23.68
2022-07-25T18:58:43.038Z,23.67
2022-07-25T19:01:09.713Z,23.66
2022-07-25T19:03:37.532Z,23.57
2022-07-25T19:06:04.888Z,23.51
2022-07-25T19:08:32.350Z,23.46
2022-07-25T19:10:58.989Z,23.42
2022-07-25T19:13:48.723Z,23.35
2022-07-25T19:16:12.691Z,23.13
2022-07-25T19:18:39.823Z,23.25
2022-07-25T19:21:07.198Z,23.20
2022-07-25T19:23:33.963Z,23.12
2022-07-25T19:26:02.704Z,23.06
2022-07-25T19:28:29.487Z,23.04
2022-07-25T19:30:57.053Z,22.98
2022-07-25T19:33:24.527Z,22.92
2022-07-25T19:35:51.360Z,22.89
2022-07-25T19:38:19.490Z,22.78
2022-07-25T19:40:46.343Z,22.82
2022-07-25T19:43:13.139Z,22.71
2022-07-25T19:45:39.766Z,22.57
2022-07-25T19:48:06.907Z,22.55
2022-07-25T19:50:33.849Z,22.55
2022-07-25T19:53:02.127Z,22.62
2022-07-25T19:55:28.823Z,22.53
2022-07-25T19:57:56.171Z,22.49
2022-07-25T20:00:23.430Z,22.47
2022-07-25T20:02:50.396Z,22.47
2022-07-25T20:05:17.527Z,22.43
2022-07-25T20:07:43.989Z,22.47
2022-07-25T20:10:10.679Z,22.45
2022-07-25T20:12:38.088Z,22.35
2022-07-25T20:15:05.284Z,22.35
2022-07-25T20:17:31.928Z,22.33
2022-07-25T20:19:58.651Z,22.26
2022-07-25T20:22:26.312Z,22.19
2022-07-25T20:24:52.751Z,22.22
2022-07-25T20:27:19.395Z,22.21
2022-07-25T20:29:46.195Z,22.19
2022-07-25T20:32:12.700Z,22.15
2022-07-25T20:34:39.245Z,22.14
2022-07-25T20:37:05.688Z,22.03
2022-07-25T20:39:32.394Z,22.03
2022-07-25T20:41:58.842Z,22.07
2022-07-25T20:44:25.856Z,21.94
2022-07-25T20:46:52.332Z,21.86
2022-07-25T20:49:18.992Z,21.84
2022-07-25T20:51:48.765Z,21.93
2022-07-25T20:54:19.342Z,21.82
2022-07-25T20:56:45.771Z,21.67
2022-07-25T20:59:12.513Z,21.68
2022-07-25T21:01:39.142Z,21.69
2022-07-25T21:04:07.756Z,21.61
2022-07-25T21:06:34.793Z,21.68
2022-07-25T21:09:05.137Z,21.63
2022-07-25T21:11:32.126Z,21.49
2022-07-25T21:13:58.727Z,21.44
2022-07-25T21:16:27.255Z,21.42
2022-07-25T21:18:56.069Z,21.50
2022-07-25T21:21:24.884Z,21.47
2022-07-25T21:23:51.931Z,21.53
2022-07-25T21:26:19.040Z,21.46
2022-07-25T21:28:45.501Z,21.36
2022-07-25T21:31:12.519Z,21.38
2022-07-25T21:33:39.444Z,21.26
2022-07-25T21:36:06.198Z,21.18
2022-07-25T21:38:34.972Z,21.32
2022-07-25T21:41:02.640Z,21.26
2022-07-25T21:43:29.088Z,21.10
2022-07-25T21:45:56.529Z,21.06
2022-07-25T21:48:43.723Z,21.06
2022-07-25T21:51:15.180Z,20.97
2022-07-25T21:53:51.215Z,20.92
2022-07-25T21:56:18.343Z,20.96
2022-07-25T21:58:44.984Z,20.90
2022-07-25T22:01:11.663Z,21.02
2022-07-25T22:03:38.241Z,20.90
2022-07-25T22:06:04.921Z,20.85
2022-07-25T22:08:31.711Z,20.83
2022-07-25T22:10:58.690Z,20.78
2022-07-25T22:13:29.096Z,20.71
2022-07-25T22:15:56.385Z,20.64
2022-07-25T22:18:22.943Z,20.67
2022-07-25T22:20:49.465Z,20.60
2022-07-25T22:23:15.949Z,20.50
2022-07-25T22:25:42.382Z,20.40
2022-07-25T22:28:09.405Z,20.35
2022-07-25T22:30:41.010Z,20.25
2022-07-25T22:33:07.470Z,20.19
2022-07-25T22:35:33.907Z,20.13
2022-07-25T22:38:00.352Z,20.08
2022-07-25T22:40:27.257Z,19.98
2022-07-25T22:42:53.728Z,19.97
2022-07-25T22:45:23.604Z,19.99
2022-07-25T22:47:50.744Z,20.03
2022-07-25T22:50:17.275Z,20.01
2022-07-25T22:52:43.759Z,20.03
2022-07-25T22:55:10.338Z,19.94
2022-07-25T22:57:37.746Z,19.91
2022-07-25T23:00:07.756Z,19.86
2022-07-25T23:02:34.301Z,19.95
2022-07-25T23:05:00.830Z,19.97
2022-07-25T23:07:27.563Z,19.87
2022-07-25T23:09:54.075Z,19.92
2022-07-25T23:12:20.672Z,20.00
2022-07-25T23:14:47.524Z,20.06
2022-07-25T23:17:17.050Z,20.09
2022-07-25T23:19:48.781Z,20.15
2022-07-25T23:22:16.307Z,20.06
2022-07-25T23:24:42.995Z,19.99
2022-07-25T23:27:09.726Z,19.93
2022-07-25T23:29:36.887Z,19.97
2022-07-25T23:32:04.199Z,19.94
2022-07-25T23:34:31.076Z,19.99
2022-07-25T23:36:57.572Z,19.98
2022-07-25T23:39:24.068Z,20.10
2022-07-25T23:41:50.597Z,20.11
2022-07-25T23:44:17.088Z,20.11
2022-07-25T23:46:44.457Z,20.22
2022-07-25T23:49:12.355Z,20.08
2022-07-25T23:51:39.527Z,19.92
2022-07-25T23:54:06.053Z,19.83
2022-07-25T23:56:32.727Z,19.88
2022-07-25T23:58:59.221Z,19.87
